createdAt,value
2019-05-13T00:01:21.019Z,6.35
2019-05-13T00:03:47.689Z,6.23
2019-05-13T00:06:14.464Z,6.18
2019-05-13T00:08:43.833Z,5.88
2019-05-13T00:11:10.301Z,5.69
2019-05-13T00:13:37.001Z,5.66
2019-05-13T00:16:03.993Z,5.51
2019-05-13T00:18:30.793Z,5.32
2019-05-13T00:20:57.604Z,5.36
2019-05-13T00:23:25.298Z,5.51
2019-05-13T00:25:54.391Z,5.43
2019-05-13T00:28:20.725Z,5.37
2019-05-13T00:30:48.550Z,5.40
2019-05-13T00:33:15.237Z,5.32
2019-05-13T00:35:44.006Z,5.19
2019-05-13T00:38:10.628Z,5.17
2019-05-13T00:40:37.406Z,5.13
2019-05-13T00:43:04.216Z,5.09
2019-05-13T00:45:30.893Z,5.15
2019-05-13T00:47:58.033Z,5.15
2019-05-13T00:50:24.709Z,5.11
2019-05-13T00:52:53.679Z,5.13
2019-05-13T00:55:20.511Z,5.12
2019-05-13T00:57:47.189Z,5.20
2019-05-13T01:00:14.435Z,5.09
2019-05-13T01:02:41.182Z,5.12
2019-05-13T01:05:08.169Z,5.13
2019-05-13T01:07:34.869Z,5.13
2019-05-13T01:10:04.034Z,5.09
2019-05-13T01:12:30.241Z,4.95
2019-05-13T01:14:56.936Z,4.90
2019-05-13T01:17:23.742Z,5.08
2019-05-13T01:19:50.709Z,4.94
2019-05-13T01:22:17.511Z,5.17
2019-05-13T01:24:44.360Z,5.14
2019-05-13T01:27:13.432Z,4.97
2019-05-13T01:29:40.210Z,5.11
2019-05-13T01:32:06.862Z,5.08
2019-05-13T01:34:34.051Z,4.93
2019-05-13T01:37:00.956Z,4.85
2019-05-13T01:39:27.748Z,4.94
2019-05-13T01:41:54.560Z,4.82
2019-05-13T01:44:21.270Z,4.94
2019-05-13T01:46:48.025Z,4.80
2019-05-13T01:49:14.709Z,5.18
2019-05-13T01:51:43.858Z,5.23
2019-05-13T01:54:11.458Z,5.00
2019-05-13T01:56:38.246Z,5.03
2019-05-13T01:59:05.065Z,4.85
2019-05-13T02:01:33.685Z,4.45
2019-05-13T02:04:00.422Z,4.45
2019-05-13T02:06:27.329Z,4.42
2019-05-13T02:08:54.627Z,4.41
2019-05-13T02:11:27.810Z,4.50
2019-05-13T02:13:54.686Z,4.47
2019-05-13T02:16:21.467Z,4.80
2019-05-13T02:18:48.147Z,5.11
2019-05-13T02:21:14.926Z,4.87
2019-05-13T02:23:41.583Z,4.84
2019-05-13T02:26:08.267Z,5.05
2019-05-13T02:28:35.159Z,5.03
2019-05-13T02:31:02.234Z,5.03
2019-05-13T02:33:28.939Z,4.99
2019-05-13T02:35:55.630Z,4.79
2019-05-13T02:38:26.298Z,4.62
2019-05-13T02:40:52.937Z,4.56
2019-05-13T02:43:23.150Z,4.76
2019-05-13T02:45:48.776Z,4.55
2019-05-13T02:48:15.561Z,4.66
2019-05-13T02:50:44.172Z,4.69
2019-05-13T02:53:13.607Z,4.43
2019-05-13T02:55:43.562Z,4.51
2019-05-13T02:58:12.274Z,4.81
2019-05-13T03:00:38.137Z,4.47
2019-05-13T03:03:04.916Z,4.54
2019-05-13T03:05:32.141Z,4.71
2019-05-13T03:07:59.014Z,4.44
2019-05-13T03:10:25.765Z,4.58
2019-05-13T03:12:53.395Z,4.42
2019-05-13T03:15:23.086Z,4.43
2019-05-13T03:18:07.397Z,4.66
2019-05-13T03:20:35.412Z,4.44
2019-05-13T03:23:02.981Z,4.29
2019-05-13T03:25:33.031Z,4.29
2019-05-13T03:28:02.877Z,4.36
2019-05-13T03:30:34.591Z,4.39
2019-05-13T03:33:02.241Z,4.36
2019-05-13T03:35:28.099Z,4.37
2019-05-13T03:37:55.087Z,4.25
2019-05-13T03:40:23.186Z,4.26
2019-05-13T03:42:53.448Z,4.25
2019-05-13T03:45:23.166Z,4.80
2019-05-13T03:47:52.729Z,4.42
2019-05-13T03:50:22.330Z,4.28
2019-05-13T03:52:47.676Z,4.36
2019-05-13T03:55:14.567Z,4.31
2019-05-13T03:57:42.579Z,4.26
2019-05-13T04:00:12.905Z,4.31
2019-05-13T04:02:38.575Z,4.19
2019-05-13T04:05:05.509Z,4.20
2019-05-13T04:07:33.564Z,4.12
2019-05-13T04:10:03.303Z,4.29
2019-05-13T04:12:33.106Z,4.15
2019-05-13T04:14:58.027Z,4.17
2019-05-13T04:17:24.810Z,4.48
2019-05-13T04:19:53.019Z,4.45
2019-05-13T04:22:22.638Z,4.38
2019-05-13T04:24:48.581Z,4.40
2019-05-13T04:27:15.628Z,4.54
2019-05-13T04:29:43.393Z,4.75
2019-05-13T04:32:12.590Z,4.61
2019-05-13T04:34:41.526Z,4.72
2019-05-13T04:37:07.683Z,4.65
2019-05-13T04:39:45.944Z,5.07
2019-05-13T04:42:03.401Z,4.64
2019-05-13T04:44:32.372Z,4.54
2019-05-13T04:46:58.853Z,4.48
2019-05-13T04:49:25.750Z,4.60
2019-05-13T04:51:52.618Z,4.61
2019-05-13T04:54:22.323Z,4.66
2019-05-13T04:56:48.059Z,4.73
2019-05-13T04:59:15.153Z,4.77
2019-05-13T05:02:13.329Z,4.90
2019-05-13T05:04:53.142Z,4.99
2019-05-13T05:07:57.892Z,5.08
2019-05-13T05:10:53.972Z,5.15
2019-05-13T05:13:44.721Z,5.21
2019-05-13T05:16:34.564Z,5.25
2019-05-13T05:19:32.271Z,5.35
2019-05-13T05:22:31.505Z,5.38
2019-05-13T05:25:22.148Z,5.51
2019-05-13T05:28:04.339Z,5.66
2019-05-13T05:31:11.955Z,5.77
2019-05-13T05:34:26.082Z,5.82
2019-05-13T05:37:23.458Z,5.93
2019-05-13T05:39:53.739Z,6.06
2019-05-13T05:42:22.937Z,6.03
2019-05-13T05:44:51.850Z,6.16
2019-05-13T05:47:21.341Z,6.26
2019-05-13T05:49:51.633Z,6.35
2019-05-13T05:52:21.282Z,6.41
2019-05-13T05:54:51.607Z,6.50
2019-05-13T05:57:18.930Z,6.54
2019-05-13T05:59:46.904Z,6.65
2019-05-13T06:02:14.074Z,6.73
2019-05-13T06:04:43.076Z,6.87
2019-05-13T06:07:11.571Z,6.61
2019-05-13T06:09:38.348Z,7.09
2019-05-13T06:12:05.119Z,7.13
2019-05-13T06:14:32.694Z,7.19
2019-05-13T06:17:02.350Z,7.29
2019-05-13T06:19:28.695Z,7.32
2019-05-13T06:21:55.568Z,7.42
2019-05-13T06:24:26.477Z,7.52
2019-05-13T06:26:52.019Z,7.60
2019-05-13T06:29:19.003Z,7.67
2019-05-13T06:31:45.795Z,7.80
2019-05-13T06:34:12.764Z,7.88
2019-05-13T06:36:41.672Z,7.96
2019-05-13T06:39:08.907Z,8.06
2019-05-13T06:41:35.682Z,8.13
2019-05-13T06:44:02.899Z,8.22
2019-05-13T06:46:51.598Z,8.32
2019-05-13T06:49:17.907Z,8.49
2019-05-13T06:51:44.646Z,8.53
2019-05-13T06:54:11.537Z,8.61
2019-05-13T06:56:38.250Z,8.71
2019-05-13T06:59:05.044Z,8.89
2019-05-13T07:01:32.388Z,9.04
2019-05-13T07:03:59.321Z,9.27
2019-05-13T07:06:27.466Z,9.64
2019-05-13T07:08:54.474Z,9.52
2019-05-13T07:11:24.955Z,9.68
2019-05-13T07:13:52.066Z,9.74
2019-05-13T07:16:18.922Z,9.59
2019-05-13T07:18:45.740Z,9.62
2019-05-13T07:21:12.715Z,9.74
2019-05-13T07:23:42.231Z,9.79
2019-05-13T07:26:12.231Z,9.77
2019-05-13T07:28:38.797Z,9.98
2019-05-13T07:31:05.601Z,10.20
2019-05-13T07:33:33.617Z,10.31
2019-05-13T07:36:02.916Z,10.33
2019-05-13T07:38:32.354Z,10.39
2019-05-13T07:41:01.698Z,10.53
2019-05-13T07:43:28.650Z,10.50
2019-05-13T07:45:55.519Z,10.56
2019-05-13T07:48:27.506Z,10.82
2019-05-13T07:50:59.612Z,10.92
2019-05-13T07:53:22.007Z,11.13
2019-05-13T07:55:48.474Z,11.19
2019-05-13T07:58:15.154Z,11.20
2019-05-13T08:00:42.129Z,11.20
2019-05-13T08:03:09.021Z,11.33
2019-05-13T08:05:35.836Z,11.51
2019-05-13T08:08:02.628Z,11.51
2019-05-13T08:10:29.301Z,11.70
2019-05-13T08:12:55.990Z,11.70
2019-05-13T08:15:22.772Z,11.63
2019-05-13T08:17:52.257Z,11.75
2019-05-13T08:20:18.157Z,11.75
2019-05-13T08:22:44.885Z,12.00
2019-05-13T08:25:12.702Z,12.00
2019-05-13T08:27:41.964Z,11.97
2019-05-13T08:30:11.724Z,11.97
2019-05-13T08:32:38.181Z,12.07
2019-05-13T08:35:08.901Z,12.02
2019-05-13T08:37:34.347Z,12.07
2019-05-13T08:40:01.670Z,12.21
2019-05-13T08:42:32.138Z,12.21
2019-05-13T08:44:58.479Z,12.30
2019-05-13T08:47:25.511Z,12.65
2019-05-13T08:49:52.305Z,12.65
2019-05-13T08:52:19.096Z,12.68
2019-05-13T08:54:45.854Z,12.61
2019-05-13T08:57:12.501Z,12.52
2019-05-13T08:59:42.225Z,12.65
2019-05-13T09:02:11.386Z,12.72
2019-05-13T09:04:37.776Z,12.73
2019-05-13T09:07:04.479Z,12.89
2019-05-13T09:09:31.702Z,13.04
2019-05-13T09:11:58.583Z,13.24
2019-05-13T09:14:25.349Z,13.10
2019-05-13T09:16:52.605Z,13.21
2019-05-13T09:19:21.559Z,13.19
2019-05-13T09:21:48.198Z,13.20
2019-05-13T09:24:25.338Z,13.26
2019-05-13T09:26:44.165Z,13.21
2019-05-13T09:29:11.872Z,13.51
2019-05-13T09:31:41.614Z,13.53
2019-05-13T09:34:08.817Z,13.42
2019-05-13T09:36:36.086Z,13.52
2019-05-13T09:39:05.013Z,13.70
2019-05-13T09:41:38.429Z,13.84
2019-05-13T09:44:02.066Z,13.66
2019-05-13T09:46:31.639Z,13.69
2019-05-13T09:49:11.846Z,13.91
2019-05-13T09:51:28.025Z,13.58
2019-05-13T09:53:55.066Z,13.63
2019-05-13T09:56:22.469Z,13.80
2019-05-13T09:58:51.302Z,14.00
2019-05-13T10:01:22.610Z,13.99
2019-05-13T10:06:21.866Z,13.98
2019-05-13T10:08:47.951Z,14.05
2019-05-13T10:11:14.655Z,14.23
2019-05-13T10:13:41.320Z,14.41
2019-05-13T10:16:09.111Z,14.53
2019-05-13T10:18:36.162Z,14.61
2019-05-13T10:21:03.254Z,14.51
2019-05-13T10:23:33.017Z,14.82
2019-05-13T10:26:03.539Z,15.16
2019-05-13T10:28:32.041Z,14.62
2019-05-13T10:30:59.102Z,14.67
2019-05-13T10:33:26.294Z,14.81
2019-05-13T10:35:53.160Z,14.82
2019-05-13T10:38:22.713Z,15.11
2019-05-13T10:40:51.721Z,14.81
2019-05-13T10:43:31.184Z,14.70
2019-05-13T10:45:46.543Z,14.86
2019-05-13T10:48:13.603Z,15.02
2019-05-13T10:50:41.858Z,15.14
2019-05-13T10:53:12.328Z,15.14
2019-05-13T10:55:38.828Z,15.12
2019-05-13T10:58:05.899Z,15.37
2019-05-13T11:00:45.766Z,15.63
2019-05-13T11:03:12.571Z,15.26
2019-05-13T11:05:42.090Z,15.30
2019-05-13T11:08:08.591Z,15.47
2019-05-13T11:10:35.975Z,15.23
2019-05-13T11:13:06.156Z,15.31
2019-05-13T11:15:32.796Z,15.43
2019-05-13T11:18:02.870Z,15.61
2019-05-13T11:20:28.771Z,15.67
2019-05-13T11:22:55.468Z,15.81
2019-05-13T11:25:22.131Z,15.53
2019-05-13T11:27:52.307Z,15.44
2019-05-13T11:30:18.140Z,15.38
2019-05-13T11:32:44.900Z,14.48
2019-05-13T11:35:12.977Z,14.81
2019-05-13T11:37:43.564Z,14.91
2019-05-13T11:40:11.966Z,14.95
2019-05-13T11:42:42.011Z,15.28
2019-05-13T11:45:11.507Z,15.46
2019-05-13T11:47:37.372Z,14.81
2019-05-13T11:50:04.303Z,14.61
2019-05-13T11:52:31.722Z,14.79
2019-05-13T11:54:58.670Z,14.97
2019-05-13T11:57:25.334Z,14.99
2019-05-13T11:59:52.828Z,15.00
2019-05-13T12:02:23.212Z,15.15
2019-05-13T12:04:48.606Z,15.20
2019-05-13T12:07:15.362Z,15.68
2019-05-13T12:09:42.241Z,15.13
2019-05-13T12:12:12.283Z,15.67
2019-05-13T12:14:50.637Z,15.71
2019-05-13T12:17:06.222Z,15.12
2019-05-13T12:19:33.044Z,15.53
2019-05-13T12:22:02.664Z,15.43
2019-05-13T12:24:28.260Z,15.90
2019-05-13T14:06:25.464Z,13.77
